sensor_id;sensor_type;location;lat;lon;timestamp;temperature;humidity
16863;DHT22;52193;48.216;-1.698;2023-03-30T00:01:15;16.60;99.90
16863;DHT22;52193;48.216;-1.698;2023-03-30T00:03:43;16.60;99.90
16863;DHT22;52193;48.216;-1.698;2023-03-30T00:06:13;16.60;99.90
16863;DHT22;52193;48.216;-1.698;2023-03-30T00:08:46;16.60;99.90
16863;DHT22;52193;48.216;-1.698;2023-03-30T00:11:13;16.60;99.90
16863;DHT22;52193;48.216;-1.698;2023-03-30T00:13:42;16.60;99.90
16863;DHT22;52193;48.216;-1.698;2023-03-30T00:16:10;16.60;99.90
16863;DHT22;52193;48.216;-1.698;2023-03-30T00:18:38;16.60;99.90
16863;DHT22;52193;48.216;-1.698;2023-03-30T00:21:06;16.60;99.90
16863;DHT22;52193;48.216;-1.698;2023-03-30T00:23:37;16.70;99.90
16863;DHT22;52193;48.216;-1.698;2023-03-30T00:26:05;16.70;99.90
16863;DHT22;52193;48.216;-1.698;2023-03-30T00:28:32;16.80;99.90
16863;DHT22;52193;48.216;-1.698;2023-03-30T00:30:59;16.80;99.90
16863;DHT22;52193;48.216;-1.698;2023-03-30T00:33:26;16.80;99.90
16863;DHT22;52193;48.216;-1.698;2023-03-30T00:35:53;16.80;99.90
16863;DHT22;52193;48.216;-1.698;2023-03-30T00:38:21;16.80;99.90
16863;DHT22;52193;48.216;-1.698;2023-03-30T00:40:54;16.90;99.90
16863;DHT22;52193;48.216;-1.698;2023-03-30T00:43:22;16.90;99.90
16863;DHT22;52193;48.216;-1.698;2023-03-30T00:45:49;16.90;99.90
16863;DHT22;52193;48.216;-1.698;2023-03-30T00:48:19;17.00;99.90
16863;DHT22;52193;48.216;-1.698;2023-03-30T00:50:50;17.00;99.90
16863;DHT22;52193;48.216;-1.698;2023-03-30T00:53:21;17.00;99.90
16863;DHT22;52193;48.216;-1.698;2023-03-30T00:55:52;17.00;99.90
16863;DHT22;52193;48.216;-1.698;2023-03-30T00:58:21;17.00;99.90
16863;DHT22;52193;48.216;-1.698;2023-03-30T01:00:49;17.00;99.90
16863;DHT22;52193;48.216;-1.698;2023-03-30T01:03:20;17.00;99.90
16863;DHT22;52193;48.216;-1.698;2023-03-30T01:05:50;17.10;99.90
16863;DHT22;52193;48.216;-1.698;2023-03-30T01:08:18;17.10;99.90
16863;DHT22;52193;48.216;-1.698;2023-03-30T01:10:49;17.10;99.90
16863;DHT22;52193;48.216;-1.698;2023-03-30T01:13:18;17.10;99.90
16863;DHT22;52193;48.216;-1.698;2023-03-30T01:15:59;17.10;99.90
16863;DHT22;52193;48.216;-1.698;2023-03-30T01:18:39;17.00;99.90
16863;DHT22;52193;48.216;-1.698;2023-03-30T01:24:36;17.00;99.90
16863;DHT22;52193;48.216;-1.698;2023-03-30T01:27:14;17.10;99.90
16863;DHT22;52193;48.216;-1.698;2023-03-30T01:29:57;17.10;99.90
16863;DHT22;52193;48.216;-1.698;2023-03-30T01:32:58;17.00;99.90
16863;DHT22;52193;48.216;-1.698;2023-03-30T01:36:07;17.00;99.90
16863;DHT22;52193;48.216;-1.698;2023-03-30T01:41:58;16.90;99.90
16863;DHT22;52193;48.216;-1.698;2023-03-30T01:44:32;16.80;99.90
16863;DHT22;52193;48.216;-1.698;2023-03-30T01:47:05;16.80;99.90
16863;DHT22;52193;48.216;-1.698;2023-03-30T01:49:38;16.80;99.90
16863;DHT22;52193;48.216;-1.698;2023-03-30T01:52:12;16.90;99.90
16863;DHT22;52193;48.216;-1.698;2023-03-30T01:54:44;16.80;99.90
16863;DHT22;52193;48.216;-1.698;2023-03-30T01:57:17;16.80;99.90
16863;DHT22;52193;48.216;-1.698;2023-03-30T01:59:51;16.80;99.90
16863;DHT22;52193;48.216;-1.698;2023-03-30T02:02:21;16.80;99.90
16863;DHT22;52193;48.216;-1.698;2023-03-30T02:04:49;16.90;99.90
16863;DHT22;52193;48.216;-1.698;2023-03-30T02:07:21;16.80;99.90
16863;DHT22;52193;48.216;-1.698;2023-03-30T02:09:51;16.80;99.90
16863;DHT22;52193;48.216;-1.698;2023-03-30T02:12:21;16.90;99.90
16863;DHT22;52193;48.216;-1.698;2023-03-30T02:14:49;17.00;99.90
16863;DHT22;52193;48.216;-1.698;2023-03-30T02:17:20;17.00;99.90
16863;DHT22;52193;48.216;-1.698;2023-03-30T02:19:49;17.00;99.90
16863;DHT22;52193;48.216;-1.698;2023-03-30T02:22:18;17.00;99.90
16863;DHT22;52193;48.216;-1.698;2023-03-30T02:24:48;17.00;99.90
16863;DHT22;52193;48.216;-1.698;2023-03-30T02:27:16;17.00;99.90
16863;DHT22;52193;48.216;-1.698;2023-03-30T02:29:45;17.00;99.90
16863;DHT22;52193;48.216;-1.698;2023-03-30T02:32:16;17.00;99.90
16863;DHT22;52193;48.216;-1.698;2023-03-30T02:34:59;17.00;99.90
16863;DHT22;52193;48.216;-1.698;2023-03-30T02:37:49;16.80;99.90
16863;DHT22;52193;48.216;-1.698;2023-03-30T02:40:30;16.90;99.90
16863;DHT22;52193;48.216;-1.698;2023-03-30T02:43:12;16.90;99.90
16863;DHT22;52193;48.216;-1.698;2023-03-30T02:45:51;16.90;99.90
16863;DHT22;52193;48.216;-1.698;2023-03-30T02:48:30;16.80;99.90
16863;DHT22;52193;48.216;-1.698;2023-03-30T02:51:10;16.80;99.90
16863;DHT22;52193;48.216;-1.698;2023-03-30T02:53:43;16.80;99.90
16863;DHT22;52193;48.216;-1.698;2023-03-30T02:56:16;16.80;99.90
16863;DHT22;52193;48.216;-1.698;2023-03-30T02:58:52;16.80;99.90
16863;DHT22;52193;48.216;-1.698;2023-03-30T03:01:25;16.80;99.90
16863;DHT22;52193;48.216;-1.698;2023-03-30T03:03:55;16.80;99.90
16863;DHT22;52193;48.216;-1.698;2023-03-30T03:06:24;16.70;99.90
16863;DHT22;52193;48.216;-1.698;2023-03-30T03:08:53;16.70;99.90
16863;DHT22;52193;48.216;-1.698;2023-03-30T03:11:21;16.60;99.90
16863;DHT22;52193;48.216;-1.698;2023-03-30T03:13:48;16.60;99.90
16863;DHT22;52193;48.216;-1.698;2023-03-30T03:16:15;16.60;99.90
16863;DHT22;52193;48.216;-1.698;2023-03-30T03:18:44;16.60;99.90
16863;DHT22;52193;48.216;-1.698;2023-03-30T03:21:12;16.50;99.90
16863;DHT22;52193;48.216;-1.698;2023-03-30T03:23:39;16.50;99.90
16863;DHT22;52193;48.216;-1.698;2023-03-30T03:26:07;16.40;99.90
16863;DHT22;52193;48.216;-1.698;2023-03-30T03:28:34;16.40;99.90
16863;DHT22;52193;48.216;-1.698;2023-03-30T03:31:02;16.30;99.90
16863;DHT22;52193;48.216;-1.698;2023-03-30T03:33:31;16.30;99.90
16863;DHT22;52193;48.216;-1.698;2023-03-30T03:35:59;16.30;99.90
16863;DHT22;52193;48.216;-1.698;2023-03-30T03:38:27;16.30;99.90
16863;DHT22;52193;48.216;-1.698;2023-03-30T03:40:55;16.30;99.90
16863;DHT22;52193;48.216;-1.698;2023-03-30T03:43:23;16.40;99.90
16863;DHT22;52193;48.216;-1.698;2023-03-30T03:45:50;16.40;99.90
16863;DHT22;52193;48.216;-1.698;2023-03-30T03:48:19;16.40;99.90
16863;DHT22;52193;48.216;-1.698;2023-03-30T03:50:49;16.30;99.90
16863;DHT22;52193;48.216;-1.698;2023-03-30T03:53:17;16.40;99.90
16863;DHT22;52193;48.216;-1.698;2023-03-30T03:55:45;16.40;99.90
16863;DHT22;52193;48.216;-1.698;2023-03-30T03:58:13;16.30;99.90
16863;DHT22;52193;48.216;-1.698;2023-03-30T04:00:41;16.20;99.90
16863;DHT22;52193;48.216;-1.698;2023-03-30T04:03:08;16.20;99.90
16863;DHT22;52193;48.216;-1.698;2023-03-30T04:05:36;16.10;99.90
16863;DHT22;52193;48.216;-1.698;2023-03-30T04:08:04;16.20;99.90
16863;DHT22;52193;48.216;-1.698;2023-03-30T04:10:34;16.20;99.90
16863;DHT22;52193;48.216;-1.698;2023-03-30T04:13:01;16.20;99.90
16863;DHT22;52193;48.216;-1.698;2023-03-30T04:15:28;16.20;99.90
16863;DHT22;52193;48.216;-1.698;2023-03-30T04:17:55;16.20;99.90
16863;DHT22;52193;48.216;-1.698;2023-03-30T04:20:23;16.20;99.90
16863;DHT22;52193;48.216;-1.698;2023-03-30T04:22:50;16.20;99.90
16863;DHT22;52193;48.216;-1.698;2023-03-30T04:25:18;16.20;99.90
16863;DHT22;52193;48.216;-1.698;2023-03-30T04:27:47;16.20;99.90
16863;DHT22;52193;48.216;-1.698;2023-03-30T04:30:16;16.20;99.90
16863;DHT22;52193;48.216;-1.698;2023-03-30T04:32:43;16.10;99.90
16863;DHT22;52193;48.216;-1.698;2023-03-30T04:35:12;16.10;99.90
16863;DHT22;52193;48.216;-1.698;2023-03-30T04:37:39;16.20;99.90
16863;DHT22;52193;48.216;-1.698;2023-03-30T04:40:08;16.20;99.90
16863;DHT22;52193;48.216;-1.698;2023-03-30T04:42:35;16.10;99.90
16863;DHT22;52193;48.216;-1.698;2023-03-30T04:45:05;16.20;99.90
16863;DHT22;52193;48.216;-1.698;2023-03-30T04:47:33;16.20;99.90
16863;DHT22;52193;48.216;-1.698;2023-03-30T04:50:01;16.20;99.90
16863;DHT22;52193;48.216;-1.698;2023-03-30T04:52:28;16.20;99.90
16863;DHT22;52193;48.216;-1.698;2023-03-30T04:54:55;16.20;99.90
16863;DHT22;52193;48.216;-1.698;2023-03-30T04:57:22;16.20;99.90
16863;DHT22;52193;48.216;-1.698;2023-03-30T04:59:49;16.20;99.90
16863;DHT22;52193;48.216;-1.698;2023-03-30T05:02:17;16.20;99.90
16863;DHT22;52193;48.216;-1.698;2023-03-30T05:04:44;16.20;99.90
16863;DHT22;52193;48.216;-1.698;2023-03-30T05:07:11;16.10;99.90
16863;DHT22;52193;48.216;-1.698;2023-03-30T05:09:39;16.10;99.90
16863;DHT22;52193;48.216;-1.698;2023-03-30T05:12:06;16.20;99.90
16863;DHT22;52193;48.216;-1.698;2023-03-30T05:14:33;16.20;99.90
16863;DHT22;52193;48.216;-1.698;2023-03-30T05:17:00;16.10;99.90
16863;DHT22;52193;48.216;-1.698;2023-03-30T05:19:28;16.20;99.90
16863;DHT22;52193;48.216;-1.698;2023-03-30T05:21:55;16.20;99.90
16863;DHT22;52193;48.216;-1.698;2023-03-30T05:24:22;16.30;99.90
16863;DHT22;52193;48.216;-1.698;2023-03-30T05:26:48;16.30;99.90
16863;DHT22;52193;48.216;-1.698;2023-03-30T05:29:15;16.20;99.90
16863;DHT22;52193;48.216;-1.698;2023-03-30T05:31:43;16.20;99.90
16863;DHT22;52193;48.216;-1.698;2023-03-30T05:34:09;16.10;99.90
16863;DHT22;52193;48.216;-1.698;2023-03-30T05:36:38;16.10;99.90
16863;DHT22;52193;48.216;-1.698;2023-03-30T05:39:05;16.10;99.90
16863;DHT22;52193;48.216;-1.698;2023-03-30T05:41:32;16.10;99.90
16863;DHT22;52193;48.216;-1.698;2023-03-30T05:43:59;16.10;99.90
16863;DHT22;52193;48.216;-1.698;2023-03-30T05:46:25;16.10;99.90
16863;DHT22;52193;48.216;-1.698;2023-03-30T05:48:53;16.10;99.90
16863;DHT22;52193;48.216;-1.698;2023-03-30T05:51:19;16.10;99.90
16863;DHT22;52193;48.216;-1.698;2023-03-30T05:53:48;16.00;99.90
16863;DHT22;52193;48.216;-1.698;2023-03-30T05:56:15;16.00;99.90
16863;DHT22;52193;48.216;-1.698;2023-03-30T05:58:42;15.90;99.90
16863;DHT22;52193;48.216;-1.698;2023-03-30T06:01:09;16.00;99.90
16863;DHT22;52193;48.216;-1.698;2023-03-30T06:03:36;16.00;99.90
16863;DHT22;52193;48.216;-1.698;2023-03-30T06:06:04;16.00;99.90
16863;DHT22;52193;48.216;-1.698;2023-03-30T06:08:32;15.90;99.90
16863;DHT22;52193;48.216;-1.698;2023-03-30T06:11:00;15.90;99.90
16863;DHT22;52193;48.216;-1.698;2023-03-30T06:13:27;15.90;99.90
16863;DHT22;52193;48.216;-1.698;2023-03-30T06:15:54;15.90;99.90
16863;DHT22;52193;48.216;-1.698;2023-03-30T06:18:21;15.90;99.90
16863;DHT22;52193;48.216;-1.698;2023-03-30T06:20:48;16.00;99.90
16863;DHT22;52193;48.216;-1.698;2023-03-30T06:23:16;16.00;99.90
16863;DHT22;52193;48.216;-1.698;2023-03-30T06:25:45;15.90;99.90
16863;DHT22;52193;48.216;-1.698;2023-03-30T06:28:18;16.00;99.90
16863;DHT22;52193;48.216;-1.698;2023-03-30T06:30:45;16.00;99.90
16863;DHT22;52193;48.216;-1.698;2023-03-30T06:33:13;16.00;99.90
16863;DHT22;52193;48.216;-1.698;2023-03-30T06:35:44;16.10;99.90
16863;DHT22;52193;48.216;-1.698;2023-03-30T06:38:12;16.10;99.90
16863;DHT22;52193;48.216;-1.698;2023-03-30T06:40:39;16.10;99.90
16863;DHT22;52193;48.216;-1.698;2023-03-30T06:43:06;16.20;99.90
16863;DHT22;52193;48.216;-1.698;2023-03-30T06:45:35;16.20;99.90
16863;DHT22;52193;48.216;-1.698;2023-03-30T06:48:02;16.10;99.90
16863;DHT22;52193;48.216;-1.698;2023-03-30T06:50:29;16.10;99.90
16863;DHT22;52193;48.216;-1.698;2023-03-30T06:52:56;16.10;99.90
16863;DHT22;52193;48.216;-1.698;2023-03-30T06:55:23;16.10;99.90
16863;DHT22;52193;48.216;-1.698;2023-03-30T06:57:50;16.10;99.90
16863;DHT22;52193;48.216;-1.698;2023-03-30T07:00:18;16.00;99.90
16863;DHT22;52193;48.216;-1.698;2023-03-30T07:02:46;16.00;99.90
16863;DHT22;52193;48.216;-1.698;2023-03-30T07:05:13;16.00;99.90
16863;DHT22;52193;48.216;-1.698;2023-03-30T07:07:41;16.00;99.90
16863;DHT22;52193;48.216;-1.698;2023-03-30T07:10:09;16.10;99.90
16863;DHT22;52193;48.216;-1.698;2023-03-30T07:12:36;16.10;99.90
16863;DHT22;52193;48.216;-1.698;2023-03-30T07:15:04;16.10;99.90
16863;DHT22;52193;48.216;-1.698;2023-03-30T07:17:32;16.20;99.90
16863;DHT22;52193;48.216;-1.698;2023-03-30T07:20:01;16.10;99.90
16863;DHT22;52193;48.216;-1.698;2023-03-30T07:22:28;16.10;99.90
16863;DHT22;52193;48.216;-1.698;2023-03-30T07:24:56;16.10;99.90
16863;DHT22;52193;48.216;-1.698;2023-03-30T07:27:23;16.10;99.90
16863;DHT22;52193;48.216;-1.698;2023-03-30T07:29:50;16.00;99.90
16863;DHT22;52193;48.216;-1.698;2023-03-30T07:32:18;16.00;99.90
16863;DHT22;52193;48.216;-1.698;2023-03-30T07:34:45;16.00;99.90
16863;DHT22;52193;48.216;-1.698;2023-03-30T07:37:13;16.00;99.90
16863;DHT22;52193;48.216;-1.698;2023-03-30T07:39:41;16.10;99.90
16863;DHT22;52193;48.216;-1.698;2023-03-30T07:42:08;16.20;99.90
16863;DHT22;52193;48.216;-1.698;2023-03-30T07:44:34;16.20;99.90
16863;DHT22;52193;48.216;-1.698;2023-03-30T07:47:01;16.30;99.90
16863;DHT22;52193;48.216;-1.698;2023-03-30T07:49:31;16.40;99.90
16863;DHT22;52193;48.216;-1.698;2023-03-30T07:51:58;16.40;99.90
16863;DHT22;52193;48.216;-1.698;2023-03-30T07:54:27;16.40;99.90
16863;DHT22;52193;48.216;-1.698;2023-03-30T07:56:54;16.50;99.90
16863;DHT22;52193;48.216;-1.698;2023-03-30T07:59:22;16.50;99.90
16863;DHT22;52193;48.216;-1.698;2023-03-30T08:01:49;16.50;99.90
16863;DHT22;52193;48.216;-1.698;2023-03-30T08:04:19;16.60;99.90
16863;DHT22;52193;48.216;-1.698;2023-03-30T08:06:46;16.70;99.90
16863;DHT22;52193;48.216;-1.698;2023-03-30T08:09:13;16.70;99.90
16863;DHT22;52193;48.216;-1.698;2023-03-30T08:11:42;16.70;99.90
16863;DHT22;52193;48.216;-1.698;2023-03-30T08:14:08;16.80;99.90
16863;DHT22;52193;48.216;-1.698;2023-03-30T08:16:35;16.80;99.90
16863;DHT22;52193;48.216;-1.698;2023-03-30T08:19:02;16.90;99.90
16863;DHT22;52193;48.216;-1.698;2023-03-30T08:21:30;17.00;99.90
16863;DHT22;52193;48.216;-1.698;2023-03-30T08:23:56;17.00;99.90
16863;DHT22;52193;48.216;-1.698;2023-03-30T08:26:24;17.00;99.90
16863;DHT22;52193;48.216;-1.698;2023-03-30T08:28:52;17.00;99.90
16863;DHT22;52193;48.216;-1.698;2023-03-30T08:31:19;17.10;99.90
16863;DHT22;52193;48.216;-1.698;2023-03-30T08:33:46;17.10;99.90
16863;DHT22;52193;48.216;-1.698;2023-03-30T08:36:14;17.30;99.90
16863;DHT22;52193;48.216;-1.698;2023-03-30T08:38:41;17.40;99.90
16863;DHT22;52193;48.216;-1.698;2023-03-30T08:44:22;17.50;99.90
16863;DHT22;52193;48.216;-1.698;2023-03-30T08:46:53;17.50;99.90
16863;DHT22;52193;48.216;-1.698;2023-03-30T08:49:21;17.50;99.90
16863;DHT22;52193;48.216;-1.698;2023-03-30T08:51:49;17.40;99.90
16863;DHT22;52193;48.216;-1.698;2023-03-30T08:54:20;17.40;99.90
16863;DHT22;52193;48.216;-1.698;2023-03-30T08:56:59;17.40;99.90
16863;DHT22;52193;48.216;-1.698;2023-03-30T08:59:39;17.40;99.90
16863;DHT22;52193;48.216;-1.698;2023-03-30T09:02:14;17.50;99.90
16863;DHT22;52193;48.216;-1.698;2023-03-30T09:04:51;17.50;99.90
16863;DHT22;52193;48.216;-1.698;2023-03-30T09:07:24;17.60;99.90
16863;DHT22;52193;48.216;-1.698;2023-03-30T09:09:52;17.50;99.90
16863;DHT22;52193;48.216;-1.698;2023-03-30T09:12:25;17.50;99.90
16863;DHT22;52193;48.216;-1.698;2023-03-30T09:14:59;17.60;99.90
16863;DHT22;52193;48.216;-1.698;2023-03-30T09:17:31;17.70;99.90
16863;DHT22;52193;48.216;-1.698;2023-03-30T09:20:02;17.70;99.90
16863;DHT22;52193;48.216;-1.698;2023-03-30T09:22:35;17.70;99.90
16863;DHT22;52193;48.216;-1.698;2023-03-30T09:25:13;17.70;99.90
16863;DHT22;52193;48.216;-1.698;2023-03-30T09:27:46;17.70;99.90
16863;DHT22;52193;48.216;-1.698;2023-03-30T09:30:18;17.70;99.90
16863;DHT22;52193;48.216;-1.698;2023-03-30T09:32:57;17.70;99.90
16863;DHT22;52193;48.216;-1.698;2023-03-30T09:35:32;17.80;99.90
16863;DHT22;52193;48.216;-1.698;2023-03-30T09:38:01;18.00;99.90
16863;DHT22;52193;48.216;-1.698;2023-03-30T09:40:42;18.00;99.90
16863;DHT22;52193;48.216;-1.698;2023-03-30T09:43:15;18.10;99.90
16863;DHT22;52193;48.216;-1.698;2023-03-30T09:45:46;18.10;99.90
16863;DHT22;52193;48.216;-1.698;2023-03-30T09:48:14;18.20;99.90
16863;DHT22;52193;48.216;-1.698;2023-03-30T09:50:43;18.20;99.90
16863;DHT22;52193;48.216;-1.698;2023-03-30T09:53:19;18.20;99.90
16863;DHT22;52193;48.216;-1.698;2023-03-30T09:56:00;18.20;99.90
16863;DHT22;52193;48.216;-1.698;2023-03-30T09:58:30;18.40;99.90
16863;DHT22;52193;48.216;-1.698;2023-03-30T10:01:04;18.40;99.90
16863;DHT22;52193;48.216;-1.698;2023-03-30T10:03:32;18.40;99.90
16863;DHT22;52193;48.216;-1.698;2023-03-30T10:06:01;18.40;99.90
16863;DHT22;52193;48.216;-1.698;2023-03-30T10:08:30;18.40;99.90
16863;DHT22;52193;48.216;-1.698;2023-03-30T10:10:58;18.30;99.90
16863;DHT22;52193;48.216;-1.698;2023-03-30T10:13:29;18.30;99.90
16863;DHT22;52193;48.216;-1.698;2023-03-30T10:16:07;18.30;99.90
16863;DHT22;52193;48.216;-1.698;2023-03-30T10:18:38;18.40;99.90
16863;DHT22;52193;48.216;-1.698;2023-03-30T10:21:16;18.40;99.90
16863;DHT22;52193;48.216;-1.698;2023-03-30T10:23:44;18.30;99.90
16863;DHT22;52193;48.216;-1.698;2023-03-30T10:26:13;18.40;99.90
16863;DHT22;52193;48.216;-1.698;2023-03-30T10:28:51;18.40;99.90
16863;DHT22;52193;48.216;-1.698;2023-03-30T10:31:20;18.30;99.90
16863;DHT22;52193;48.216;-1.698;2023-03-30T10:33:48;18.10;99.90
16863;DHT22;52193;48.216;-1.698;2023-03-30T10:36:17;17.80;99.90
16863;DHT22;52193;48.216;-1.698;2023-03-30T10:38:45;17.60;99.90
16863;DHT22;52193;48.216;-1.698;2023-03-30T10:41:15;17.40;99.90
16863;DHT22;52193;48.216;-1.698;2023-03-30T10:43:46;17.30;99.90
16863;DHT22;52193;48.216;-1.698;2023-03-30T10:46:16;17.20;99.90
16863;DHT22;52193;48.216;-1.698;2023-03-30T10:48:54;17.30;99.90
16863;DHT22;52193;48.216;-1.698;2023-03-30T10:51:31;17.30;99.90
16863;DHT22;52193;48.216;-1.698;2023-03-30T10:54:05;17.30;99.90
16863;DHT22;52193;48.216;-1.698;2023-03-30T10:56:37;17.30;99.90
16863;DHT22;52193;48.216;-1.698;2023-03-30T10:59:36;17.30;99.90
16863;DHT22;52193;48.216;-1.698;2023-03-30T11:02:22;17.30;99.90
16863;DHT22;52193;48.216;-1.698;2023-03-30T11:04:57;17.30;99.90
16863;DHT22;52193;48.216;-1.698;2023-03-30T11:07:29;17.30;99.90
16863;DHT22;52193;48.216;-1.698;2023-03-30T11:10:02;17.40;99.90
16863;DHT22;52193;48.216;-1.698;2023-03-30T11:12:34;17.40;99.90
16863;DHT22;52193;48.216;-1.698;2023-03-30T11:15:07;17.50;99.90
16863;DHT22;52193;48.216;-1.698;2023-03-30T11:17:44;17.50;99.90
16863;DHT22;52193;48.216;-1.698;2023-03-30T11:20:23;17.50;99.90
16863;DHT22;52193;48.216;-1.698;2023-03-30T11:22:57;17.50;99.90
16863;DHT22;52193;48.216;-1.698;2023-03-30T11:25:29;17.40;99.90
16863;DHT22;52193;48.216;-1.698;2023-03-30T11:28:00;17.50;99.90
16863;DHT22;52193;48.216;-1.698;2023-03-30T11:30:32;17.60;99.90
16863;DHT22;52193;48.216;-1.698;2023-03-30T11:33:07;17.80;99.90
16863;DHT22;52193;48.216;-1.698;2023-03-30T11:35:41;18.00;99.90
16863;DHT22;52193;48.216;-1.698;2023-03-30T11:38:13;18.20;99.90
16863;DHT22;52193;48.216;-1.698;2023-03-30T11:40:43;18.30;99.90
16863;DHT22;52193;48.216;-1.698;2023-03-30T11:43:11;18.50;99.90
16863;DHT22;52193;48.216;-1.698;2023-03-30T11:45:49;18.60;99.90
16863;DHT22;52193;48.216;-1.698;2023-03-30T11:51:17;18.90;99.90
16863;DHT22;52193;48.216;-1.698;2023-03-30T11:53:52;19.10;99.90
16863;DHT22;52193;48.216;-1.698;2023-03-30T11:56:29;19.20;99.90
16863;DHT22;52193;48.216;-1.698;2023-03-30T11:59:02;19.10;99.90
16863;DHT22;52193;48.216;-1.698;2023-03-30T12:01:44;19.00;99.90
16863;DHT22;52193;48.216;-1.698;2023-03-30T12:04:21;19.00;99.90
16863;DHT22;52193;48.216;-1.698;2023-03-30T12:06:54;19.10;99.90
16863;DHT22;52193;48.216;-1.698;2023-03-30T12:09:24;19.20;99.90
16863;DHT22;52193;48.216;-1.698;2023-03-30T12:11:54;19.20;99.90
16863;DHT22;52193;48.216;-1.698;2023-03-30T12:14:39;19.30;99.90
16863;DHT22;52193;48.216;-1.698;2023-03-30T12:17:17;19.10;99.90
16863;DHT22;52193;48.216;-1.698;2023-03-30T12:19:54;18.90;99.90
16863;DHT22;52193;48.216;-1.698;2023-03-30T12:22:29;18.80;99.90
16863;DHT22;52193;48.216;-1.698;2023-03-30T12:25:04;18.60;99.90
16863;DHT22;52193;48.216;-1.698;2023-03-30T12:27:34;18.50;99.90
16863;DHT22;52193;48.216;-1.698;2023-03-30T12:30:12;18.40;99.90
16863;DHT22;52193;48.216;-1.698;2023-03-30T12:32:56;18.40;99.90
16863;DHT22;52193;48.216;-1.698;2023-03-30T12:35:52;18.80;99.90
16863;DHT22;52193;48.216;-1.698;2023-03-30T12:38:22;19.20;99.90
16863;DHT22;52193;48.216;-1.698;2023-03-30T12:41:01;19.60;99.90
16863;DHT22;52193;48.216;-1.698;2023-03-30T12:43:36;20.10;99.90
16863;DHT22;52193;48.216;-1.698;2023-03-30T12:46:09;20.50;99.90
16863;DHT22;52193;48.216;-1.698;2023-03-30T12:48:44;21.00;99.90
16863;DHT22;52193;48.216;-1.698;2023-03-30T12:51:27;21.40;99.90
16863;DHT22;52193;48.216;-1.698;2023-03-30T12:54:13;21.80;99.90
16863;DHT22;52193;48.216;-1.698;2023-03-30T12:56:57;22.20;99.90
16863;DHT22;52193;48.216;-1.698;2023-03-30T12:59:47;22.60;99.90
16863;DHT22;52193;48.216;-1.698;2023-03-30T13:02:51;22.80;99.90
16863;DHT22;52193;48.216;-1.698;2023-03-30T13:05:25;22.70;99.90
16863;DHT22;52193;48.216;-1.698;2023-03-30T13:07:55;22.40;99.90
16863;DHT22;52193;48.216;-1.698;2023-03-30T13:10:41;22.20;99.90
16863;DHT22;52193;48.216;-1.698;2023-03-30T13:16:07;22.10;99.90
16863;DHT22;52193;48.216;-1.698;2023-03-30T13:18:40;22.00;99.90
16863;DHT22;52193;48.216;-1.698;2023-03-30T13:21:20;21.90;99.90
16863;DHT22;52193;48.216;-1.698;2023-03-30T13:24:04;21.60;99.90
16863;DHT22;52193;48.216;-1.698;2023-03-30T13:26:49;21.40;99.90
16863;DHT22;52193;48.216;-1.698;2023-03-30T13:29:20;21.30;99.90
16863;DHT22;52193;48.216;-1.698;2023-03-30T13:31:58;21.20;99.90
16863;DHT22;52193;48.216;-1.698;2023-03-30T13:34:39;21.20;99.90
16863;DHT22;52193;48.216;-1.698;2023-03-30T13:37:15;21.30;99.90
16863;DHT22;52193;48.216;-1.698;2023-03-30T13:39:49;21.10;99.90
16863;DHT22;52193;48.216;-1.698;2023-03-30T13:42:34;21.10;99.90
16863;DHT22;52193;48.216;-1.698;2023-03-30T13:45:13;21.00;99.90
16863;DHT22;52193;48.216;-1.698;2023-03-30T13:47:56;20.90;99.90
16863;DHT22;52193;48.216;-1.698;2023-03-30T13:50:27;21.00;99.90
16863;DHT22;52193;48.216;-1.698;2023-03-30T13:52:57;20.90;99.90
16863;DHT22;52193;48.216;-1.698;2023-03-30T13:55:28;20.80;99.90
16863;DHT22;52193;48.216;-1.698;2023-03-30T13:58:00;20.70;99.90
16863;DHT22;52193;48.216;-1.698;2023-03-30T14:00:34;20.70;99.90
16863;DHT22;52193;48.216;-1.698;2023-03-30T14:03:32;20.50;99.90
16863;DHT22;52193;48.216;-1.698;2023-03-30T14:06:01;20.60;99.90
16863;DHT22;52193;48.216;-1.698;2023-03-30T14:08:30;20.50;99.90
16863;DHT22;52193;48.216;-1.698;2023-03-30T14:11:00;20.40;99.90
16863;DHT22;52193;48.216;-1.698;2023-03-30T14:13:30;20.30;99.90
16863;DHT22;52193;48.216;-1.698;2023-03-30T14:15:58;20.30;99.90
16863;DHT22;52193;48.216;-1.698;2023-03-30T14:18:25;20.20;99.90
16863;DHT22;52193;48.216;-1.698;2023-03-30T14:20:55;20.10;99.90
16863;DHT22;52193;48.216;-1.698;2023-03-30T14:23:30;20.00;99.90
16863;DHT22;52193;48.216;-1.698;2023-03-30T14:25:59;19.90;99.90
16863;DHT22;52193;48.216;-1.698;2023-03-30T14:28:32;19.90;99.90
16863;DHT22;52193;48.216;-1.698;2023-03-30T14:31:00;19.80;99.90
16863;DHT22;52193;48.216;-1.698;2023-03-30T14:33:29;19.70;99.90
16863;DHT22;52193;48.216;-1.698;2023-03-30T14:35:58;19.70;99.90
16863;DHT22;52193;48.216;-1.698;2023-03-30T14:38:28;19.80;99.90
16863;DHT22;52193;48.216;-1.698;2023-03-30T14:40:59;19.90;99.90
16863;DHT22;52193;48.216;-1.698;2023-03-30T14:43:28;20.00;99.90
16863;DHT22;52193;48.216;-1.698;2023-03-30T14:45:58;19.90;99.90
16863;DHT22;52193;48.216;-1.698;2023-03-30T14:48:28;19.90;99.90
16863;DHT22;52193;48.216;-1.698;2023-03-30T14:50:56;19.70;99.90
16863;DHT22;52193;48.216;-1.698;2023-03-30T14:53:25;19.70;99.90
16863;DHT22;52193;48.216;-1.698;2023-03-30T14:55:55;19.60;99.90
16863;DHT22;52193;48.216;-1.698;2023-03-30T14:58:23;19.60;99.90
16863;DHT22;52193;48.216;-1.698;2023-03-30T15:00:54;19.60;99.90
16863;DHT22;52193;48.216;-1.698;2023-03-30T15:03:27;19.60;99.90
16863;DHT22;52193;48.216;-1.698;2023-03-30T15:05:54;19.60;99.90
16863;DHT22;52193;48.216;-1.698;2023-03-30T15:08:29;19.50;99.90
16863;DHT22;52193;48.216;-1.698;2023-03-30T15:10:57;19.40;99.90
16863;DHT22;52193;48.216;-1.698;2023-03-30T15:13:30;19.20;99.90
16863;DHT22;52193;48.216;-1.698;2023-03-30T15:15:59;19.10;99.90
16863;DHT22;52193;48.216;-1.698;2023-03-30T15:18:28;18.90;99.90
16863;DHT22;52193;48.216;-1.698;2023-03-30T15:20:57;18.90;99.90
16863;DHT22;52193;48.216;-1.698;2023-03-30T15:23:31;18.90;99.90
16863;DHT22;52193;48.216;-1.698;2023-03-30T15:26:00;18.90;99.90
16863;DHT22;52193;48.216;-1.698;2023-03-30T15:28:31;18.90;99.90
16863;DHT22;52193;48.216;-1.698;2023-03-30T15:30:59;18.90;99.90
16863;DHT22;52193;48.216;-1.698;2023-03-30T15:33:33;18.90;99.90
16863;DHT22;52193;48.216;-1.698;2023-03-30T15:36:05;18.90;99.90
16863;DHT22;52193;48.216;-1.698;2023-03-30T15:38:34;19.00;99.90
16863;DHT22;52193;48.216;-1.698;2023-03-30T15:41:01;18.90;99.90
16863;DHT22;52193;48.216;-1.698;2023-03-30T15:43:29;18.90;99.90
16863;DHT22;52193;48.216;-1.698;2023-03-30T15:46:00;18.90;99.90
16863;DHT22;52193;48.216;-1.698;2023-03-30T15:48:33;18.90;99.90
16863;DHT22;52193;48.216;-1.698;2023-03-30T15:51:04;18.90;99.90
16863;DHT22;52193;48.216;-1.698;2023-03-30T15:53:35;18.80;99.90
16863;DHT22;52193;48.216;-1.698;2023-03-30T15:56:02;18.70;99.90